Time;durP1;ratioP1;P1;durP2;ratioP2;P2;SDS_P1;SDS_P2;PMS_P1;PMS_P2;Temp;Humidity;BMP_temperature;BMP_pressure;BME280_temperature;BME280_humidity;BME280_pressure;Samples;Min_cycle;Max_cycle;Signal;HPM_P1;HPM_P2
2023/03/21 00:00:20;;;;;;;7.93;4.57;;;11.60;99.90;;;;;;5056122;28;20739;-70
2023/03/21 00:02:46;;;;;;;7.47;4.28;;;11.70;99.90;;;;;;5054908;28;20021;-69
2023/03/21 00:05:11;;;;;;;7.33;4.30;;;11.70;99.90;;;;;;5053451;28;20040;-70
2023/03/21 00:07:37;;;;;;;6.83;3.80;;;11.80;99.90;;;;;;5070443;28;20873;-70
2023/03/21 00:10:03;;;;;;;8.87;3.97;;;11.70;99.90;;;;;;5072188;28;20039;-69
2023/03/21 00:12:31;;;;;;;8.10;3.70;;;11.60;99.90;;;;;;5073448;28;20032;-70
2023/03/21 00:15:03;;;;;;;8.10;4.13;;;11.50;99.90;;;;;;5072260;28;20480;-70
2023/03/21 00:17:32;;;;;;;6.90;3.92;;;11.50;99.90;;;;;;5073413;28;20029;-70
2023/03/21 00:19:59;;;;;;;9.50;4.43;;;11.50;99.90;;;;;;5073734;28;20056;-70
2023/03/21 00:22:26;;;;;;;6.97;4.63;;;11.40;99.90;;;;;;5071989;28;20025;-70
2023/03/21 00:24:52;;;;;;;6.97;3.90;;;11.50;99.90;;;;;;5057911;28;20029;-70
2023/03/21 00:27:20;;;;;;;7.13;4.07;;;11.50;99.90;;;;;;5053474;28;20047;-70
2023/03/21 00:29:48;;;;;;;6.80;4.13;;;11.50;99.90;;;;;;5063603;28;20032;-70
2023/03/21 00:32:14;;;;;;;8.05;4.47;;;11.50;99.90;;;;;;5073454;28;20017;-70
2023/03/21 00:34:43;;;;;;;;;;;11.60;99.90;;;;;;5068522;28;20025;-69
2023/03/21 00:37:11;;;;;;;9.90;3.55;;;11.50;99.90;;;;;;5053513;28;19905;-69
2023/03/21 00:39:37;;;;;;;7.57;4.60;;;11.40;99.90;;;;;;5052884;28;20493;-69
2023/03/21 00:42:03;;;;;;;7.60;3.70;;;11.30;99.90;;;;;;5053258;28;20052;-69
2023/03/21 00:44:35;;;;;;;8.25;3.95;;;11.20;99.90;;;;;;5052431;28;20338;-69
2023/03/21 00:47:02;;;;;;;7.88;4.03;;;11.30;99.90;;;;;;5052442;28;20041;-69
2023/03/21 00:49:32;;;;;;;10.27;4.38;;;11.30;99.90;;;;;;5052638;28;20425;-65
2023/03/21 00:52:01;;;;;;;7.40;4.22;;;11.20;99.90;;;;;;5053115;28;20021;-69
2023/03/21 00:54:26;;;;;;;5.97;3.63;;;11.30;99.90;;;;;;5051228;28;20097;-68
2023/03/21 00:56:52;;;;;;;6.03;3.87;;;11.30;99.90;;;;;;5052493;28;20033;-69
2023/03/21 00:59:18;;;;;;;6.32;4.13;;;11.10;99.90;;;;;;5052425;28;20104;-69
2023/03/21 01:01:45;;;;;;;6.72;3.58;;;11.10;99.90;;;;;;5052184;28;20055;-69
2023/03/21 01:04:13;;;;;;;6.80;3.63;;;11.10;99.90;;;;;;5051786;28;20025;-69
2023/03/21 01:06:40;;;;;;;6.10;3.97;;;11.00;99.90;;;;;;5052620;28;20029;-70
2023/03/21 01:09:11;;;;;;;6.30;3.25;;;11.00;99.90;;;;;;5056262;28;20481;-69
2023/03/21 01:11:36;;;;;;;8.35;3.78;;;10.90;99.90;;;;;;5056419;28;20385;-69
2023/03/21 01:14:02;;;;;;;7.27;3.93;;;10.90;99.90;;;;;;5055573;28;20017;-70
2023/03/21 01:16:28;;;;;;;7.93;3.60;;;10.90;99.90;;;;;;5057339;28;20467;-69
2023/03/21 01:18:54;;;;;;;6.75;3.58;;;10.90;99.90;;;;;;5057662;28;20259;-69
2023/03/21 01:21:20;;;;;;;6.72;3.30;;;10.80;99.90;;;;;;5056077;28;20067;-69
2023/03/21 01:23:46;;;;;;;5.23;3.43;;;10.80;99.90;;;;;;5055279;28;20025;-70
2023/03/21 01:26:13;;;;;;;7.50;3.88;;;10.80;99.90;;;;;;5055981;28;20083;-70
2023/03/21 01:28:41;;;;;;;7.32;3.60;;;10.60;99.90;;;;;;5056190;28;20029;-70
2023/03/21 01:31:08;;;;;;;6.78;3.97;;;10.60;99.90;;;;;;5054676;28;20540;-70
2023/03/21 01:33:34;;;;;;;5.57;3.67;;;10.60;99.90;;;;;;5056161;28;20040;-69
2023/03/21 01:36:00;;;;;;;6.03;3.30;;;10.70;99.90;;;;;;5056190;28;20032;-70
2023/03/21 01:38:26;;;;;;;3.53;2.95;;;10.70;99.90;;;;;;5056086;28;20116;-70
2023/03/21 01:40:51;;;;;;;7.32;3.47;;;10.80;99.90;;;;;;5056138;28;20140;-69
2023/03/21 01:43:33;;;;;;;6.10;3.50;;;10.80;99.90;;;;;;5056245;28;20025;-69
2023/03/21 01:46:23;;;;;;;5.65;3.65;;;10.80;99.90;;;;;;5055779;28;20105;-69
2023/03/21 01:49:02;;;;;;;7.32;3.50;;;10.80;99.90;;;;;;5056181;28;20451;-69
2023/03/21 01:51:32;;;;;;;5.47;3.38;;;10.90;99.90;;;;;;5055994;28;20096;-69
2023/03/21 01:53:59;;;;;;;10.55;3.30;;;10.90;99.90;;;;;;5055898;28;20028;-69
2023/03/21 01:56:35;;;;;;;6.00;3.60;;;11.00;99.90;;;;;;5054867;28;20028;-68
2023/03/21 01:59:07;;;;;;;6.03;3.08;;;11.00;99.90;;;;;;5054538;28;20029;-69
2023/03/21 02:01:33;;;;;;;4.72;3.55;;;10.90;99.90;;;;;;5054081;28;20033;-70
2023/03/21 02:04:02;;;;;;;5.07;3.30;;;10.90;99.90;;;;;;5056144;28;20017;-69
2023/03/21 02:06:48;;;;;;;7.38;3.53;;;10.70;99.90;;;;;;5055896;28;20021;-69
2023/03/21 02:09:20;;;;;;;5.65;3.67;;;10.50;99.90;;;;;;5055289;28;20033;-70
2023/03/21 02:11:46;;;;;;;6.82;3.75;;;10.40;99.90;;;;;;5054069;28;20056;-70
2023/03/21 02:14:14;;;;;;;6.40;3.50;;;10.30;99.90;;;;;;5055633;28;20025;-69
2023/03/21 02:17:04;;;;;;;7.57;3.85;;;10.40;99.90;;;;;;5053374;28;20037;-70
2023/03/21 02:19:54;;;;;;;10.52;4.22;;;10.30;99.90;;;;;;5054516;28;20078;-69
2023/03/21 02:22:36;;;;;;;9.05;4.38;;;10.20;99.90;;;;;;5053989;28;20389;-70
2023/03/21 02:25:05;;;;;;;6.22;3.35;;;10.20;99.90;;;;;;5055130;28;20032;-70
2023/03/21 02:27:43;;;;;;;5.57;3.38;;;10.10;99.90;;;;;;5055141;28;20037;-69
2023/03/21 02:30:30;;;;;;;5.85;3.10;;;10.10;99.90;;;;;;5054583;28;20033;-68
2023/03/21 02:33:26;;;;;;;6.43;3.20;;;10.10;99.90;;;;;;5053830;28;20021;-69
2023/03/21 02:36:25;;;;;;;5.30;3.13;;;10.10;99.90;;;;;;5055208;28;20021;-69
2023/03/21 02:39:11;;;;;;;7.03;3.42;;;10.10;99.90;;;;;;5053685;28;20025;-70
2023/03/21 02:41:51;;;;;;;6.87;3.10;;;10.00;99.90;;;;;;5054862;28;20025;-68
2023/03/21 02:44:35;;;;;;;5.90;3.25;;;9.90;99.90;;;;;;5053467;28;20021;-70
2023/03/21 02:47:13;;;;;;;6.53;3.30;;;9.80;99.90;;;;;;5054015;28;20017;-69
2023/03/21 02:49:46;;;;;;;9.57;3.17;;;9.90;99.90;;;;;;5054883;28;20029;-69
2023/03/21 02:52:16;;;;;;;5.15;3.33;;;9.90;99.90;;;;;;5054851;28;20045;-70
2023/03/21 02:54:43;;;;;;;6.97;2.95;;;9.90;99.90;;;;;;5054508;28;20017;-69
2023/03/21 02:57:09;;;;;;;;;;;10.00;99.90;;;;;;5054920;28;20017;-70
2023/03/21 02:59:36;;;;;;;4.93;3.25;;;10.10;99.90;;;;;;5053696;28;19905;-69
2023/03/21 03:02:02;;;;;;;6.88;3.20;;;10.10;99.90;;;;;;5052531;28;20020;-69
2023/03/21 03:04:28;;;;;;;5.53;3.55;;;10.10;99.90;;;;;;5054704;28;20063;-69
2023/03/21 03:07:16;;;;;;;7.70;3.30;;;10.10;99.90;;;;;;5054479;28;20060;-70
2023/03/21 03:10:04;;;;;;;8.30;3.05;;;10.10;99.90;;;;;;5054844;28;20128;-70
2023/03/21 03:12:32;;;;;;;;;;;10.10;99.90;;;;;;5054855;28;20025;-70
2023/03/21 03:15:16;;;;;;;8.55;3.50;;;10.10;99.90;;;;;;5054387;28;20393;-69
2023/03/21 03:18:05;;;;;;;8.35;3.90;;;10.10;99.90;;;;;;5054118;28;20016;-70
2023/03/21 03:21:03;;;;;;;5.32;3.30;;;10.20;99.90;;;;;;5054240;28;20035;-69
2023/03/21 03:23:49;;;;;;;6.38;3.25;;;10.00;99.90;;;;;;5052616;28;20401;-69
2023/03/21 03:26:29;;;;;;;7.90;3.45;;;10.20;99.90;;;;;;5053904;28;20029;-69
2023/03/21 03:29:00;;;;;;;6.90;3.30;;;10.20;99.90;;;;;;5052722;28;20029;-69
2023/03/21 03:31:31;;;;;;;8.05;3.10;;;10.20;99.90;;;;;;5052570;28;20024;-70
2023/03/21 03:34:01;;;;;;;6.50;3.47;;;10.10;99.90;;;;;;5055558;28;20047;-70
2023/03/21 03:36:35;;;;;;;5.75;3.25;;;10.10;99.90;;;;;;5055234;28;20048;-69
2023/03/21 03:39:08;;;;;;;5.10;3.20;;;10.10;99.90;;;;;;5053513;28;20467;-69
2023/03/21 03:41:41;;;;;;;5.95;3.17;;;9.90;99.90;;;;;;5053902;28;20426;-70
2023/03/21 03:44:07;;;;;;;5.95;3.10;;;10.10;99.90;;;;;;5053663;28;20032;-69
2023/03/21 03:46:38;;;;;;;;;;;10.00;99.90;;;;;;5054109;28;20036;-70
2023/03/21 03:49:25;;;;;;;5.18;3.28;;;10.00;99.90;;;;;;5053517;28;19913;-70
2023/03/21 03:52:00;;;;;;;7.90;3.13;;;9.90;99.90;;;;;;5053835;28;20100;-71
2023/03/21 03:54:39;;;;;;;7.95;3.65;;;9.90;99.90;;;;;;5052114;28;20021;-69
2023/03/21 03:57:05;;;;;;;7.82;2.80;;;9.90;99.90;;;;;;5051967;28;20029;-70
2023/03/21 03:59:32;;;;;;;;;;;10.00;99.90;;;;;;5054008;28;20036;-70
2023/03/21 04:01:58;;;;;;;4.60;3.15;;;10.00;99.90;;;;;;5052995;28;20280;-70
2023/03/21 04:04:27;;;;;;;6.70;3.83;;;9.90;99.90;;;;;;5052079;28;20132;-69
2023/03/21 04:06:52;;;;;;;6.78;3.85;;;9.90;99.90;;;;;;5053208;28;20024;-68
2023/03/21 04:09:18;;;;;;;6.73;3.80;;;9.90;99.90;;;;;;5051342;28;20033;-68
2023/03/21 04:11:44;;;;;;;6.80;3.63;;;9.90;99.90;;;;;;5053126;28;20024;-70
2023/03/21 04:14:09;;;;;;;7.40;3.73;;;9.80;99.90;;;;;;5053477;28;20063;-69
2023/03/21 04:16:35;;;;;;;6.30;3.90;;;9.80;99.90;;;;;;5053175;28;20025;-69
2023/03/21 04:19:01;;;;;;;5.47;3.57;;;9.80;99.90;;;;;;5054584;28;20031;-69
2023/03/21 04:21:27;;;;;;;3.80;2.97;;;9.90;99.90;;;;;;5052191;28;20021;-69
2023/03/21 04:23:56;;;;;;;5.80;3.50;;;10.00;99.90;;;;;;5053185;28;20032;-70
2023/03/21 04:26:23;;;;;;;5.65;3.65;;;9.90;99.90;;;;;;5053116;28;20025;-69
2023/03/21 04:28:49;;;;;;;4.50;2.88;;;9.90;99.90;;;;;;5052402;28;20029;-70
2023/03/21 04:31:16;;;;;;;5.00;3.25;;;9.90;99.90;;;;;;5052830;28;20024;-68
2023/03/21 04:33:42;;;;;;;5.05;2.90;;;9.90;99.90;;;;;;5053075;28;20021;-68
2023/03/21 04:36:08;;;;;;;3.28;2.70;;;9.80;99.90;;;;;;5051232;28;20032;-70
2023/03/21 04:38:35;;;;;;;6.57;3.55;;;9.80;99.90;;;;;;5051548;28;20029;-70
2023/03/21 04:41:01;;;;;;;7.00;3.53;;;9.90;99.90;;;;;;5051473;28;20029;-69
2023/03/21 04:43:27;;;;;;;7.22;3.50;;;9.90;99.90;;;;;;5056808;28;20032;-70
2023/03/21 04:45:54;;;;;;;8.10;4.00;;;9.80;99.90;;;;;;5057484;28;20405;-69
2023/03/21 04:48:23;;;;;;;6.68;3.28;;;9.90;99.90;;;;;;5056780;28;20370;-69
2023/03/21 04:50:49;;;;;;;6.43;3.35;;;9.90;99.90;;;;;;5055868;28;20083;-69
2023/03/21 04:53:14;;;;;;;7.28;3.55;;;9.80;99.90;;;;;;5055787;28;20053;-69
2023/03/21 04:55:40;;;;;;;8.07;4.00;;;9.80;99.90;;;;;;5056877;28;20040;-69
2023/03/21 04:58:06;;;;;;;6.38;3.00;;;9.80;99.90;;;;;;5055412;28;20112;-70
2023/03/21 05:00:36;;;;;;;4.97;3.28;;;9.80;99.90;;;;;;5056545;28;20036;-70
2023/03/21 05:03:03;;;;;;;5.82;3.58;;;9.80;99.90;;;;;;5056395;28;20071;-70
2023/03/21 05:05:30;;;;;;;6.65;3.50;;;9.80;99.90;;;;;;5055141;28;20033;-70
2023/03/21 05:07:56;;;;;;;;;;;9.70;99.90;;;;;;5055293;28;20438;-70
2023/03/21 05:10:21;;;;;;;5.05;3.70;;;9.70;99.90;;;;;;5071037;22;19955;-67
2023/03/21 05:12:47;;;;;;;6.80;3.83;;;9.60;99.90;;;;;;5056319;28;20029;-68
2023/03/21 05:15:12;;;;;;;6.77;3.10;;;9.60;99.90;;;;;;5039383;28;20025;-68
2023/03/21 05:17:38;;;;;;;7.33;3.40;;;9.50;99.90;;;;;;5038378;28;20032;-68
2023/03/21 05:20:06;;;;;;;8.87;4.27;;;9.50;99.90;;;;;;5042473;28;20263;-66
2023/03/21 05:22:39;;;;;;;6.22;3.60;;;9.30;99.90;;;;;;5059389;28;20027;-71
2023/03/21 05:25:07;;;;;;;5.50;3.47;;;9.30;99.90;;;;;;5077205;28;20025;-70
2023/03/21 05:27:33;;;;;;;6.05;3.08;;;9.30;99.90;;;;;;5076243;28;20052;-69
2023/03/21 05:30:06;;;;;;;6.40;3.60;;;9.30;99.90;;;;;;5078067;28;20483;-68
2023/03/21 05:32:32;;;;;;;5.75;3.40;;;9.10;99.90;;;;;;5058639;28;20037;-68
2023/03/21 05:34:57;;;;;;;7.20;3.20;;;9.10;99.90;;;;;;5058177;28;20071;-70
2023/03/21 05:37:23;;;;;;;4.73;2.87;;;9.20;99.90;;;;;;5058300;28;20366;-65
2023/03/21 05:39:49;;;;;;;6.60;3.03;;;9.10;99.90;;;;;;5057100;28;20366;-72
2023/03/21 05:42:15;;;;;;;4.93;3.20;;;9.00;99.90;;;;;;5054422;28;20267;-71
2023/03/21 05:44:40;;;;;;;6.47;3.30;;;8.90;99.90;;;;;;5055960;28;20024;-71
2023/03/21 05:47:07;;;;;;;8.03;3.37;;;8.90;99.90;;;;;;5056291;28;20041;-70
2023/03/21 05:49:32;;;;;;;4.32;3.20;;;8.90;99.90;;;;;;5056689;28;20358;-70
2023/03/21 05:51:58;;;;;;;6.77;3.60;;;8.90;99.90;;;;;;5077271;28;20049;-71
2023/03/21 05:54:23;;;;;;;5.63;3.43;;;8.90;99.90;;;;;;5061029;28;20437;-71
2023/03/21 05:56:49;;;;;;;5.07;3.30;;;9.00;99.90;;;;;;5076459;28;20027;-71
2023/03/21 05:59:15;;;;;;;6.60;3.80;;;9.10;99.90;;;;;;5076478;28;20028;-66
2023/03/21 06:01:41;;;;;;;9.32;3.45;;;9.10;99.90;;;;;;5072488;28;20289;-68
2023/03/21 06:04:06;;;;;;;6.17;3.37;;;9.00;99.90;;;;;;5076464;28;20036;-66
2023/03/21 06:06:32;;;;;;;6.23;3.57;;;9.00;99.90;;;;;;5039421;28;20032;-66
2023/03/21 06:08:57;;;;;;;9.00;3.97;;;8.90;99.90;;;;;;5056247;28;20032;-66
2023/03/21 06:11:35;;;;;;;6.30;3.97;;;8.90;99.90;;;;;;5057277;28;20037;-66
2023/03/21 06:14:01;;;;;;;6.75;3.88;;;8.90;99.90;;;;;;5040650;28;20084;-67
2023/03/21 06:16:27;;;;;;;9.95;4.20;;;8.90;99.90;;;;;;5060396;28;20147;-68
2023/03/21 06:18:54;;;;;;;6.78;3.80;;;8.90;99.90;;;;;;5039496;28;20033;-67
2023/03/21 06:21:19;;;;;;;;;;;8.90;99.90;;;;;;5056598;28;20021;-67
2023/03/21 06:23:45;;;;;;;7.78;3.72;;;8.90;99.90;;;;;;5060089;28;19905;-67
2023/03/21 06:26:12;;;;;;;5.75;3.67;;;9.00;99.90;;;;;;5058346;28;20423;-67
2023/03/21 06:28:38;;;;;;;5.97;3.80;;;9.00;99.90;;;;;;5057882;28;20036;-67
2023/03/21 06:31:04;;;;;;;4.72;3.53;;;9.20;99.90;;;;;;5057048;28;20373;-66
2023/03/21 06:33:29;;;;;;;8.60;3.65;;;9.20;99.90;;;;;;5075079;28;20047;-68
2023/03/21 06:35:57;;;;;;;6.20;3.37;;;9.20;99.90;;;;;;5075316;28;20016;-68
2023/03/21 06:38:23;;;;;;;10.45;5.03;;;9.20;99.90;;;;;;5075101;28;20476;-68
2023/03/21 06:40:49;;;;;;;8.40;3.35;;;9.30;99.90;;;;;;5056610;28;20031;-68
2023/03/21 06:43:15;;;;;;;7.00;3.80;;;9.50;99.90;;;;;;5057522;28;20112;-69
2023/03/21 06:45:42;;;;;;;7.60;3.90;;;9.40;99.90;;;;;;5038017;28;20025;-66
2023/03/21 06:48:07;;;;;;;5.03;3.10;;;9.50;99.90;;;;;;5063334;28;20458;-66
2023/03/21 06:50:33;;;;;;;9.50;3.70;;;9.50;99.90;;;;;;5061922;28;20052;-66
2023/03/21 06:52:59;;;;;;;11.47;3.70;;;9.60;99.90;;;;;;5063393;28;20037;-67
2023/03/21 06:55:27;;;;;;;5.63;3.03;;;9.60;99.90;;;;;;5055013;28;20298;-68
2023/03/21 06:57:54;;;;;;;9.43;3.35;;;9.70;99.90;;;;;;5059153;28;20538;-67
2023/03/21 07:00:20;;;;;;;8.20;3.53;;;9.60;99.90;;;;;;5072481;28;20476;-66
2023/03/21 07:02:46;;;;;;;6.30;3.30;;;9.70;99.90;;;;;;5074786;28;20334;-67
2023/03/21 07:05:11;;;;;;;11.02;3.40;;;9.60;99.90;;;;;;5073086;28;20481;-67
2023/03/21 07:07:38;;;;;;;5.97;3.33;;;9.70;99.90;;;;;;5073408;28;20108;-67
2023/03/21 07:10:04;;;;;;;;;;;9.80;99.90;;;;;;5054824;28;20081;-67
2023/03/21 07:12:32;;;;;;;6.32;3.45;;;9.80;99.90;;;;;;5054583;28;19912;-67
2023/03/21 07:15:03;;;;;;;4.32;3.25;;;9.70;99.90;;;;;;5054951;28;20025;-68
2023/03/21 07:17:29;;;;;;;8.15;3.70;;;9.60;99.90;;;;;;5073144;28;20016;-68
2023/03/21 07:19:54;;;;;;;7.05;3.53;;;9.80;99.90;;;;;;5072862;28;20031;-66
2023/03/21 07:22:20;;;;;;;5.33;3.10;;;9.70;99.90;;;;;;5074361;28;20037;-66
2023/03/21 07:24:49;;;;;;;5.72;3.17;;;9.70;99.90;;;;;;5074544;28;20067;-66
2023/03/21 07:27:16;;;;;;;5.63;3.03;;;9.80;99.90;;;;;;5073895;28;20028;-66
2023/03/21 07:29:43;;;;;;;6.20;3.25;;;10.00;99.90;;;;;;5056250;28;20055;-66
2023/03/21 07:32:09;;;;;;;10.65;3.30;;;9.90;99.90;;;;;;5074181;28;20081;-66
2023/03/21 07:34:34;;;;;;;4.70;3.15;;;9.90;99.90;;;;;;5074101;28;20052;-66
2023/03/21 07:37:00;;;;;;;4.63;3.20;;;10.30;99.90;;;;;;5076022;28;20048;-68
2023/03/21 07:39:26;;;;;;;5.93;2.97;;;10.50;99.90;;;;;;5075629;28;20028;-67
2023/03/21 07:41:55;;;;;;;6.03;2.95;;;10.90;99.90;;;;;;5075377;28;20025;-67
2023/03/21 07:44:22;;;;;;;4.95;3.15;;;11.10;99.90;;;;;;5056974;28;20024;-67
2023/03/21 07:46:47;;;;;;;3.65;2.65;;;11.20;99.90;;;;;;5074665;28;20489;-67
2023/03/21 07:49:13;;;;;;;6.97;3.30;;;11.40;99.90;;;;;;5073905;28;20164;-67
2023/03/21 07:51:39;;;;;;;7.27;3.70;;;11.50;99.90;;;;;;5074618;28;20028;-67
2023/03/21 07:54:05;;;;;;;5.67;3.03;;;11.40;99.90;;;;;;5073896;28;20021;-66
2023/03/21 07:56:30;;;;;;;4.35;2.75;;;11.20;99.90;;;;;;5074448;28;20024;-66
2023/03/21 07:58:56;;;;;;;7.43;3.20;;;11.00;99.90;;;;;;5058775;28;20052;-66
2023/03/21 08:01:22;;;;;;;7.28;3.08;;;11.10;99.90;;;;;;5058614;28;20024;-67
2023/03/21 08:03:48;;;;;;;8.00;3.17;;;11.60;99.90;;;;;;5056088;28;20025;-67
2023/03/21 08:06:14;;;;;;;4.25;2.58;;;12.10;99.90;;;;;;5075799;28;20017;-67
2023/03/21 08:08:39;;;;;;;3.92;2.67;;;12.40;99.90;;;;;;5078509;28;20074;-67
2023/03/21 08:11:05;;;;;;;7.00;2.77;;;12.80;99.90;;;;;;5076766;28;20040;-66
2023/03/21 08:13:32;;;;;;;3.63;2.20;;;13.10;99.90;;;;;;5074350;28;20539;-67
2023/03/21 08:15:57;;;;;;;4.93;2.58;;;13.40;99.90;;;;;;5055182;28;20033;-67
2023/03/21 08:18:23;;;;;;;6.03;2.70;;;13.50;99.90;;;;;;5072900;28;20390;-66
2023/03/21 08:20:56;;;;;;;7.47;2.50;;;13.80;99.90;;;;;;5074238;28;20054;-66
2023/03/21 08:23:23;;;;;;;4.45;2.42;;;13.80;99.90;;;;;;5073462;28;20025;-66
2023/03/21 08:25:56;;;;;;;4.53;2.35;;;13.70;99.90;;;;;;5055209;28;20024;-67
2023/03/21 08:28:22;;;;;;;5.38;2.22;;;13.70;99.90;;;;;;5080470;28;20389;-66
2023/03/21 08:30:48;;;;;;;5.05;2.40;;;13.70;99.90;;;;;;5075955;28;20115;-66
2023/03/21 08:33:16;;;;;;;5.32;2.28;;;13.60;99.90;;;;;;5073570;28;20067;-66
2023/03/21 08:35:42;;;;;;;4.55;1.80;;;13.50;99.90;;;;;;5073577;28;20020;-66
2023/03/21 08:38:08;;;;;;;6.43;2.10;;;13.50;99.90;;;;;;5054549;28;20024;-67
2023/03/21 08:40:34;;;;;;;7.90;2.22;;;13.30;99.90;;;;;;5055063;28;20459;-66
2023/03/21 08:42:59;;;;;;;4.72;2.42;;;13.40;99.90;;;;;;5073715;28;20381;-67
2023/03/21 08:45:26;;;;;;;2.33;2.03;;;13.20;99.90;;;;;;5073312;28;20032;-67
2023/03/21 08:47:51;;;;;;;;;;;13.30;99.90;;;;;;5075749;28;20532;-66
2023/03/21 08:50:20;;;;;;;3.67;2.60;;;13.30;99.90;;;;;;5074718;28;20011;-67
2023/03/21 08:52:46;;;;;;;7.13;2.85;;;13.50;99.90;;;;;;5057463;28;20458;-67
2023/03/21 08:55:12;;;;;;;4.75;3.20;;;13.60;99.90;;;;;;5074351;28;20052;-68
2023/03/21 08:57:38;;;;;;;4.38;2.65;;;13.40;99.90;;;;;;5075428;28;20435;-68
2023/03/21 09:00:15;;;;;;;3.92;2.50;;;13.60;99.90;;;;;;5055835;28;20031;-67
2023/03/21 09:02:43;;;;;;;7.57;3.28;;;13.60;99.90;;;;;;5074520;28;20089;-67
2023/03/21 09:05:10;;;;;;;7.90;3.40;;;13.60;99.90;;;;;;5073713;28;20036;-67
2023/03/21 09:07:37;;;;;;;4.00;2.63;;;13.60;99.90;;;;;;5072660;28;20028;-67
2023/03/21 09:10:03;;;;;;;;;;;13.70;99.90;;;;;;5072873;28;20033;-68
2023/03/21 09:12:29;;;;;;;7.47;3.53;;;13.80;99.90;;;;;;5073051;28;20017;-66
2023/03/21 09:14:55;;;;;;;6.32;3.20;;;14.00;99.90;;;;;;5072759;28;20033;-66
2023/03/21 09:17:20;;;;;;;4.73;2.63;;;14.20;99.90;;;;;;5054545;28;20027;-66
2023/03/21 09:19:46;;;;;;;5.73;2.77;;;14.20;99.90;;;;;;5072249;28;20070;-67
2023/03/21 09:22:16;;;;;;;6.40;2.70;;;14.10;99.90;;;;;;5054604;28;20115;-66
2023/03/21 09:24:45;;;;;;;6.22;2.75;;;14.20;99.90;;;;;;5074471;28;20511;-67
2023/03/21 09:27:11;;;;;;;6.30;3.38;;;14.20;99.90;;;;;;5054694;28;20029;-67
2023/03/21 09:29:36;;;;;;;4.28;2.28;;;14.20;99.90;;;;;;5074948;28;20021;-67
2023/03/21 09:32:03;;;;;;;4.90;2.75;;;14.40;99.90;;;;;;5075987;28;20047;-66
2023/03/21 09:34:28;;;;;;;10.55;2.80;;;14.50;99.90;;;;;;5059070;28;20020;-67
2023/03/21 09:36:55;;;;;;;4.90;2.22;;;14.60;99.90;;;;;;5057390;28;20074;-67
2023/03/21 09:39:22;;;;;;;4.05;2.33;;;14.90;99.90;;;;;;5076005;28;20538;-67
2023/03/21 09:41:57;;;;;;;;;;;14.90;99.90;;;;;;5075947;28;20111;-66
2023/03/21 09:44:32;;;;;;;3.42;1.80;;;14.90;99.90;;;;;;5058524;28;20309;-67
2023/03/21 09:47:19;;;;;;;4.18;2.17;;;14.90;99.90;;;;;;5075378;28;20423;-68
2023/03/21 09:49:50;;;;;;;2.85;1.95;;;14.90;99.90;;;;;;5057846;28;20420;-67
2023/03/21 09:52:42;;;;;;;3.60;1.92;;;14.80;99.90;;;;;;5075062;28;20099;-67
2023/03/21 09:55:17;;;;;;;4.10;2.30;;;14.60;99.90;;;;;;5077254;28;20084;-67
2023/03/21 09:57:46;;;;;;;5.43;2.20;;;14.20;99.90;;;;;;5078694;28;20508;-67
2023/03/21 10:00:24;;;;;;;4.72;2.38;;;14.10;99.90;;;;;;5078462;28;20024;-68
2023/03/21 10:02:52;;;;;;;5.68;2.10;;;14.30;99.90;;;;;;5077419;28;20024;-68
2023/03/21 10:05:26;;;;;;;4.22;2.33;;;14.30;99.90;;;;;;5076996;28;20035;-68
2023/03/21 10:08:21;;;;;;;4.95;2.33;;;14.40;99.90;;;;;;5075922;28;20112;-67
2023/03/21 10:10:50;;;;;;;3.25;2.28;;;14.50;99.90;;;;;;5055395;28;20484;-68
2023/03/21 10:13:26;;;;;;;3.42;2.08;;;14.70;99.90;;;;;;5074632;28;20387;-66
2023/03/21 10:16:08;;;;;;;7.07;2.40;;;14.70;99.90;;;;;;5076278;28;20020;-66
2023/03/21 10:18:36;;;;;;;5.30;2.35;;;14.10;99.90;;;;;;5074382;28;20024;-66
2023/03/21 10:21:03;;;;;;;3.95;2.53;;;14.20;99.90;;;;;;5057131;28;20047;-66
2023/03/21 10:23:29;;;;;;;3.25;2.17;;;14.20;99.90;;;;;;5074316;28;20028;-66
2023/03/21 10:25:59;;;;;;;3.05;1.92;;;14.40;99.90;;;;;;5056754;28;20149;-66
2023/03/21 10:28:29;;;;;;;4.18;2.08;;;14.30;99.90;;;;;;5074671;28;20028;-66
2023/03/21 10:31:09;;;;;;;4.85;2.13;;;14.10;99.90;;;;;;5057432;28;20358;-67
2023/03/21 10:33:38;;;;;;;7.47;2.65;;;14.30;99.90;;;;;;5049178;28;20017;-67
2023/03/21 10:36:18;;;;;;;4.22;2.90;;;14.20;99.90;;;;;;5054963;28;20047;-67
2023/03/21 10:38:48;;;;;;;5.25;2.30;;;14.40;99.90;;;;;;5062232;28;20032;-66
2023/03/21 10:41:14;;;;;;;2.83;2.10;;;14.20;99.90;;;;;;5075076;28;20029;-67
2023/03/21 10:43:44;;;;;;;4.83;2.20;;;14.10;99.90;;;;;;5074732;28;20073;-67
2023/03/21 10:46:19;;;;;;;3.55;2.28;;;14.10;99.90;;;;;;5057136;28;20036;-67
2023/03/21 10:48:51;;;;;;;7.53;3.05;;;14.00;99.90;;;;;;5074221;28;20017;-67
2023/03/21 10:51:21;;;;;;;3.55;2.10;;;13.90;99.90;;;;;;5076912;28;20109;-66
2023/03/21 10:53:57;;;;;;;4.03;2.40;;;13.90;99.90;;;;;;5056776;28;20017;-67
2023/03/21 10:56:26;;;;;;;;;;;14.30;99.90;;;;;;5074709;28;20012;-67
2023/03/21 10:58:54;;;;;;;3.38;1.85;;;14.90;99.90;;;;;;5074340;28;19911;-67
2023/03/21 11:01:35;;;;;;;4.10;2.40;;;15.60;99.80;;;;;;5055363;28;20025;-67
2023/03/21 11:04:08;;;;;;;4.20;2.22;;;16.10;99.00;;;;;;5074414;28;20027;-67
2023/03/21 11:06:38;;;;;;;6.80;2.30;;;16.60;97.80;;;;;;5075645;28;20056;-67
2023/03/21 11:09:20;;;;;;;2.40;1.88;;;16.90;97.10;;;;;;5057617;28;20027;-67
2023/03/21 11:12:08;;;;;;;3.58;2.30;;;17.00;96.60;;;;;;5083131;23;20124;-69
2023/03/21 11:14:43;;;;;;;2.65;1.95;;;16.70;96.60;;;;;;5072757;28;20032;-67
2023/03/21 11:17:17;;;;;;;6.55;2.58;;;16.20;97.40;;;;;;5073835;28;20028;-69
2023/03/21 11:19:57;;;;;;;3.60;2.42;;;15.60;98.20;;;;;;5073760;28;20032;-69
2023/03/21 11:22:27;;;;;;;5.28;2.65;;;15.90;98.00;;;;;;5073775;28;20024;-68
2023/03/21 11:25:00;;;;;;;3.65;2.38;;;16.40;97.80;;;;;;5069423;28;20418;-68
2023/03/21 11:27:30;;;;;;;3.47;2.20;;;17.00;96.60;;;;;;5052463;28;20029;-70
2023/03/21 11:29:59;;;;;;;5.72;2.58;;;17.40;96.30;;;;;;5053580;28;20033;-70
2023/03/21 11:32:29;;;;;;;11.43;2.80;;;16.70;96.40;;;;;;5052261;28;20021;-70
2023/03/21 11:35:01;;;;;;;7.53;2.25;;;17.10;95.70;;;;;;5053825;28;20025;-70
2023/03/21 11:37:35;;;;;;;3.50;1.67;;;17.00;95.70;;;;;;5051519;28;20117;-69
2023/03/21 11:40:22;;;;;;;4.50;2.33;;;17.10;94.90;;;;;;5053921;28;20024;-69
2023/03/21 11:42:50;;;;;;;4.47;2.50;;;16.90;94.70;;;;;;5053775;28;20074;-70
2023/03/21 11:45:19;;;;;;;3.47;2.45;;;16.50;95.30;;;;;;5053247;28;20523;-69
2023/03/21 11:47:49;;;;;;;3.72;2.58;;;16.70;95.30;;;;;;5053296;28;20033;-70
2023/03/21 11:50:46;;;;;;;5.15;3.22;;;16.90;94.90;;;;;;5051715;28;20029;-69
2023/03/21 11:53:35;;;;;;;7.32;2.70;;;17.10;94.50;;;;;;5051369;28;20035;-69
2023/03/21 11:56:14;;;;;;;5.95;2.92;;;17.20;94.50;;;;;;5053186;28;20017;-69
2023/03/21 11:59:09;;;;;;;7.85;2.83;;;17.20;94.50;;;;;;5053238;28;20017;-69
2023/03/21 12:01:38;;;;;;;5.63;2.70;;;17.20;94.50;;;;;;5053081;28;20037;-70
2023/03/21 12:04:22;;;;;;;5.90;3.00;;;17.30;94.00;;;;;;5051591;28;20066;-69
2023/03/21 12:06:57;;;;;;;5.35;2.60;;;17.50;93.70;;;;;;5052391;28;20075;-68
2023/03/21 12:09:26;;;;;;;4.35;2.22;;;17.50;93.90;;;;;;5053032;28;20086;-70
2023/03/21 12:12:12;;;;;;;6.05;1.95;;;17.40;93.50;;;;;;5053044;28;20028;-69
2023/03/21 12:15:08;;;;;;;4.35;1.77;;;17.30;93.00;;;;;;5051760;28;20051;-70
2023/03/21 12:17:49;;;;;;;4.28;2.17;;;17.20;92.50;;;;;;5054336;28;20053;-69
2023/03/21 12:20:35;;;;;;;3.42;2.40;;;17.10;92.80;;;;;;5054732;28;20032;-69
2023/03/21 12:23:31;;;;;;;58.10;18.50;;;16.80;92.90;;;;;;5051233;28;20025;-69
2023/03/21 12:26:10;;;;;;;4.38;2.70;;;16.90;93.30;;;;;;5047899;28;20197;-69
2023/03/21 12:28:38;;;;;;;10.82;3.88;;;17.20;93.50;;;;;;5032989;28;20026;-69
2023/03/21 12:31:21;;;;;;;4.32;2.80;;;17.40;93.50;;;;;;5032866;28;20025;-70
2023/03/21 12:34:09;;;;;;;4.20;2.25;;;17.60;93.30;;;;;;5034314;28;20025;-67
2023/03/21 12:36:47;;;;;;;5.40;2.67;;;17.50;93.10;;;;;;5053025;28;20024;-70
2023/03/21 12:39:26;;;;;;;7.90;2.83;;;17.70;93.00;;;;;;5051876;28;20057;-69
2023/03/21 12:42:24;;;;;;;4.47;2.70;;;17.70;93.00;;;;;;5051448;28;20386;-70
2023/03/21 12:45:02;;;;;;;7.30;2.90;;;17.90;92.60;;;;;;5051508;28;20040;-69
2023/03/21 12:47:31;;;;;;;3.83;2.20;;;18.00;92.30;;;;;;5052328;28;20026;-69
2023/03/21 12:50:05;;;;;;;4.47;2.40;;;18.00;91.60;;;;;;5052130;28;20033;-68
2023/03/21 12:52:57;;;;;;;7.97;3.00;;;18.00;91.80;;;;;;5052144;28;20021;-71
2023/03/21 12:55:28;;;;;;;5.20;2.50;;;17.90;91.80;;;;;;5068339;28;20474;-71
2023/03/21 12:58:03;;;;;;;3.53;1.92;;;18.10;91.60;;;;;;5054237;28;20036;-70
2023/03/21 13:00:52;;;;;;;3.22;1.90;;;18.30;91.50;;;;;;5055848;28;20021;-70
2023/03/21 13:03:23;;;;;;;2.58;1.80;;;18.10;91.50;;;;;;5035547;28;20065;-69
2023/03/21 13:06:01;;;;;;;3.67;1.70;;;18.10;91.40;;;;;;5036191;28;20026;-68
2023/03/21 13:08:36;;;;;;;3.17;1.80;;;18.10;91.10;;;;;;5035055;28;20025;-68
2023/03/21 13:11:03;;;;;;;2.45;1.80;;;18.20;91.10;;;;;;5037731;28;20025;-68